Charles B. Wheeler Downtown Airport Kansas City US
ICAO: KMKC
IATA: MKC
Category: Medium
Scheduled Services: No

Elevation: 759 ft
TransAlt. 18000 ft.

Airport Communications:
APP/DEP:119
ATIS:120.75
CLNC DEL:121.9
GND:121.9
COLUMBIA RDO:122.6
DOWNTOWN TWR:133.3
UNICOM:122.95

KMKC Zoom In..

If Map Doesn't Load, Click Here

Runways:

(A) RW 01 length 6827 ft width 150 ft
---- / hdg 8

(B) RW 03 length 5050 ft width 100 ft
ILS 111.75 / hdg 33

(C) RW 19 length 6827 ft width 150 ft
ILS 109.90 / hdg 188

(D) RW 21 length 5050 ft width 100 ft
---- / hdg 213

Location; KMKC
Day. 21 / Time. 13.54 Zulu
* Altimeter: 30.10
* Temperature: 19° c. 66.2°f.
* Wind from: 330° Speed 11 kn with Gusts up to 19 kn.
Dewpoint: 13° c.
Visibility: 10 Statute Miles.
Clouds: Clear (automated report).

KMKC 211354Z 33011G19KT 10SM CLR 19/13 A3010 RMK AO2 SLP185 T01940133


Wind From 330°
Speed 11 kn.

 
 
jpsmedia.com for Web Design worldairports.se 2018   terms of use